KMKG

Muskegon County Airport

Muskegon, Michigan, USA
METAR KMKG 201955Z 10010KT 10SM OVC220 27/16 A2991 RMK AO2 SLP124 T02670156
Observed Flight Rules
Aug-20 @ 19:55 UTC (34 minutes ago) Visual Flight Rules
Wind Visibility Clouds
100° at 10 knots 10 miles
  • Overcast at 22,000' AGL
Temperatures Readings
Current 27°C / 81°F
Dewpoint 16°C / 61°F
Humidity 51%
Altimeter 29.91" Hg
Pressure 1012.4 hPa
Elevation 191
METAR KMKG 201955Z 10010KT 10SM OVC220 27/16 A2991 RMK AO2 SLP124 T02670156
Observed Flight Rules
Aug-20 @ 19:55 UTC
(34 minutes ago)
VFR
Wind Visibility
100° at 10 knots 10 miles
Clouds
  • Overcast at 22,000' AGL
Temperature Dewpoint
27°C / 81°F 16°C / 61°F
Humidity Altimeter Pressure
51% 29.91" Hg 1012.4 hPa